sensor_id;sensor_type;location;lat;lon;timestamp;pressure;altitude;pressure_sealevel;temperature;humidity
74334;BME280;62753;40.394;-80.022;2023-09-07T00:01:10;96816.97;;;36.14;24.67
74334;BME280;62753;40.394;-80.022;2023-09-07T00:03:35;96814.84;;;35.15;25.74
74334;BME280;62753;40.394;-80.022;2023-09-07T00:06:00;96816.39;;;35.96;25.05
74334;BME280;62753;40.394;-80.022;2023-09-07T00:08:25;96815.15;;;36.08;24.91
74334;BME280;62753;40.394;-80.022;2023-09-07T00:10:52;96822.78;;;36.84;24.35
74334;BME280;62753;40.394;-80.022;2023-09-07T00:13:16;96824.26;;;36.31;24.89
74334;BME280;62753;40.394;-80.022;2023-09-07T00:15:43;96825.85;;;36.39;24.96
74334;BME280;62753;40.394;-80.022;2023-09-07T00:18:07;96824.90;;;35.37;25.60
74334;BME280;62753;40.394;-80.022;2023-09-07T00:20:34;96827.27;;;35.86;25.42
74334;BME280;62753;40.394;-80.022;2023-09-07T00:22:58;96828.89;;;35.34;25.68
74334;BME280;62753;40.394;-80.022;2023-09-07T00:25:24;96830.59;;;35.94;25.37
74334;BME280;62753;40.394;-80.022;2023-09-07T00:27:49;96830.14;;;36.09;24.90
74334;BME280;62753;40.394;-80.022;2023-09-07T00:30:14;96831.67;;;35.93;25.36
74334;BME280;62753;40.394;-80.022;2023-09-07T00:32:40;96830.23;;;35.71;25.33
74334;BME280;62753;40.394;-80.022;2023-09-07T00:35:06;96832.31;;;34.90;26.54
74334;BME280;62753;40.394;-80.022;2023-09-07T00:37:30;96832.77;;;35.52;25.84
74334;BME280;62753;40.394;-80.022;2023-09-07T00:39:55;96834.32;;;35.85;25.59
74334;BME280;62753;40.394;-80.022;2023-09-07T00:42:21;96837.62;;;35.67;25.94
74334;BME280;62753;40.394;-80.022;2023-09-07T00:44:45;96840.26;;;35.04;26.59
74334;BME280;62753;40.394;-80.022;2023-09-07T00:47:11;96841.59;;;35.24;26.31
74334;BME280;62753;40.394;-80.022;2023-09-07T00:49:36;96841.58;;;35.32;26.05
74334;BME280;62753;40.394;-80.022;2023-09-07T00:52:02;96840.39;;;34.71;26.64
74334;BME280;62753;40.394;-80.022;2023-09-07T00:54:28;96833.23;;;35.70;25.84
74334;BME280;62753;40.394;-80.022;2023-09-07T00:56:52;96833.41;;;35.18;26.17
74334;BME280;62753;40.394;-80.022;2023-09-07T00:59:17;96833.04;;;34.77;26.62
74334;BME280;62753;40.394;-80.022;2023-09-07T01:01:43;96834.56;;;34.68;26.72
74334;BME280;62753;40.394;-80.022;2023-09-07T01:04:09;96836.57;;;35.33;26.16
74334;BME280;62753;40.394;-80.022;2023-09-07T01:06:38;96833.39;;;34.93;26.54
74334;BME280;62753;40.394;-80.022;2023-09-07T01:09:06;96832.32;;;34.64;26.70
74334;BME280;62753;40.394;-80.022;2023-09-07T01:11:25;96836.30;;;34.74;27.26
74334;BME280;62753;40.394;-80.022;2023-09-07T01:13:50;96834.49;;;34.72;27.09
74334;BME280;62753;40.394;-80.022;2023-09-07T01:16:15;96836.25;;;34.21;27.64
74334;BME280;62753;40.394;-80.022;2023-09-07T01:18:41;96830.95;;;35.36;26.46
74334;BME280;62753;40.394;-80.022;2023-09-07T01:21:07;96828.27;;;34.84;27.01
74334;BME280;62753;40.394;-80.022;2023-09-07T01:23:31;96827.51;;;34.40;27.99
74334;BME280;62753;40.394;-80.022;2023-09-07T01:25:57;96831.95;;;34.61;27.95
74334;BME280;62753;40.394;-80.022;2023-09-07T01:28:22;96834.36;;;33.94;28.53
74334;BME280;62753;40.394;-80.022;2023-09-07T01:30:47;96839.23;;;34.39;28.09
74334;BME280;62753;40.394;-80.022;2023-09-07T01:33:12;96832.83;;;33.71;28.86
74334;BME280;62753;40.394;-80.022;2023-09-07T01:35:38;96832.97;;;33.59;29.31
74334;BME280;62753;40.394;-80.022;2023-09-07T01:38:04;96833.02;;;35.01;27.56
74334;BME280;62753;40.394;-80.022;2023-09-07T01:40:29;96836.55;;;35.04;27.45
74334;BME280;62753;40.394;-80.022;2023-09-07T01:42:54;96836.01;;;34.46;28.16
74334;BME280;62753;40.394;-80.022;2023-09-07T01:45:20;96836.16;;;33.88;29.48
74334;BME280;62753;40.394;-80.022;2023-09-07T01:47:45;96839.22;;;34.06;29.36
74334;BME280;62753;40.394;-80.022;2023-09-07T01:50:11;96843.04;;;34.55;28.97
74334;BME280;62753;40.394;-80.022;2023-09-07T01:52:36;96841.50;;;34.88;28.43
74334;BME280;62753;40.394;-80.022;2023-09-07T01:55:02;96841.29;;;34.74;28.88
74334;BME280;62753;40.394;-80.022;2023-09-07T01:57:26;96840.51;;;34.87;28.78
74334;BME280;62753;40.394;-80.022;2023-09-07T01:59:51;96837.39;;;34.12;29.33
74334;BME280;62753;40.394;-80.022;2023-09-07T02:02:17;96839.98;;;34.45;29.45
74334;BME280;62753;40.394;-80.022;2023-09-07T02:04:43;96835.64;;;34.20;29.57
74334;BME280;62753;40.394;-80.022;2023-09-07T02:07:08;96834.37;;;33.35;30.43
74334;BME280;62753;40.394;-80.022;2023-09-07T02:09:33;96833.29;;;33.45;30.37
74334;BME280;62753;40.394;-80.022;2023-09-07T02:11:59;96830.83;;;34.09;29.87
74334;BME280;62753;40.394;-80.022;2023-09-07T02:14:23;96832.49;;;34.79;29.11
74334;BME280;62753;40.394;-80.022;2023-09-07T02:16:50;96827.69;;;34.99;28.90
74334;BME280;62753;40.394;-80.022;2023-09-07T02:19:14;96829.40;;;34.80;28.76
74334;BME280;62753;40.394;-80.022;2023-09-07T02:21:40;96831.75;;;34.23;29.49
74334;BME280;62753;40.394;-80.022;2023-09-07T02:24:06;96827.63;;;33.97;29.93
74334;BME280;62753;40.394;-80.022;2023-09-07T02:26:32;96825.60;;;33.45;30.23
74334;BME280;62753;40.394;-80.022;2023-09-07T02:28:56;96830.56;;;34.54;29.29
74334;BME280;62753;40.394;-80.022;2023-09-07T02:31:22;96828.24;;;34.42;29.19
74334;BME280;62753;40.394;-80.022;2023-09-07T02:33:47;96824.14;;;34.67;29.44
74334;BME280;62753;40.394;-80.022;2023-09-07T02:36:12;96823.91;;;33.24;30.58
74334;BME280;62753;40.394;-80.022;2023-09-07T02:38:38;96823.27;;;33.61;30.52
74334;BME280;62753;40.394;-80.022;2023-09-07T02:41:03;96823.13;;;34.28;29.82
74334;BME280;62753;40.394;-80.022;2023-09-07T02:43:29;96822.57;;;33.60;30.64
74334;BME280;62753;40.394;-80.022;2023-09-07T02:45:54;96826.50;;;33.60;30.76
74334;BME280;62753;40.394;-80.022;2023-09-07T02:48:19;96832.15;;;33.48;31.40
74334;BME280;62753;40.394;-80.022;2023-09-07T02:50:44;96839.14;;;32.35;32.96
74334;BME280;62753;40.394;-80.022;2023-09-07T02:53:10;96834.39;;;32.66;32.35
74334;BME280;62753;40.394;-80.022;2023-09-07T02:55:38;96835.43;;;32.66;32.44
74334;BME280;62753;40.394;-80.022;2023-09-07T02:58:03;96839.39;;;32.35;32.94
74334;BME280;62753;40.394;-80.022;2023-09-07T03:00:26;96834.34;;;33.42;31.17
74334;BME280;62753;40.394;-80.022;2023-09-07T03:02:51;96839.86;;;32.02;32.76
74334;BME280;62753;40.394;-80.022;2023-09-07T03:05:16;96838.69;;;32.59;32.47
74334;BME280;62753;40.394;-80.022;2023-09-07T03:07:44;96834.12;;;33.15;31.81
74334;BME280;62753;40.394;-80.022;2023-09-07T03:10:13;96832.24;;;33.43;31.01
74334;BME280;62753;40.394;-80.022;2023-09-07T03:12:33;96833.96;;;33.11;31.37
74334;BME280;62753;40.394;-80.022;2023-09-07T03:14:58;96839.53;;;32.86;32.16
74334;BME280;62753;40.394;-80.022;2023-09-07T03:17:23;96840.99;;;32.99;32.03
74334;BME280;62753;40.394;-80.022;2023-09-07T03:19:50;96840.77;;;31.92;33.42
74334;BME280;62753;40.394;-80.022;2023-09-07T03:22:14;96838.54;;;31.68;33.92
74334;BME280;62753;40.394;-80.022;2023-09-07T03:24:38;96837.47;;;31.73;33.86
74334;BME280;62753;40.394;-80.022;2023-09-07T03:27:04;96838.13;;;32.84;31.90
74334;BME280;62753;40.394;-80.022;2023-09-07T03:29:30;96843.69;;;32.34;32.79
74334;BME280;62753;40.394;-80.022;2023-09-07T03:31:56;96841.53;;;32.68;32.04
74334;BME280;62753;40.394;-80.022;2023-09-07T03:34:20;96842.00;;;32.73;32.33
74334;BME280;62753;40.394;-80.022;2023-09-07T03:36:46;96839.66;;;32.79;32.08
74334;BME280;62753;40.394;-80.022;2023-09-07T03:39:12;96835.11;;;33.07;31.60
74334;BME280;62753;40.394;-80.022;2023-09-07T03:41:37;96835.87;;;32.96;31.87
74334;BME280;62753;40.394;-80.022;2023-09-07T03:44:02;96835.56;;;33.07;31.47
74334;BME280;62753;40.394;-80.022;2023-09-07T03:46:27;96835.59;;;33.45;31.41
74334;BME280;62753;40.394;-80.022;2023-09-07T03:48:53;96834.60;;;32.57;31.77
74334;BME280;62753;40.394;-80.022;2023-09-07T03:51:18;96835.81;;;32.79;31.93
74334;BME280;62753;40.394;-80.022;2023-09-07T03:53:44;96836.45;;;31.79;32.72
74334;BME280;62753;40.394;-80.022;2023-09-07T03:56:09;96834.56;;;31.85;33.04
74334;BME280;62753;40.394;-80.022;2023-09-07T03:58:35;96834.17;;;31.87;32.83
74334;BME280;62753;40.394;-80.022;2023-09-07T04:01:01;96834.79;;;32.09;32.67
74334;BME280;62753;40.394;-80.022;2023-09-07T04:03:26;96836.41;;;33.11;31.92
74334;BME280;62753;40.394;-80.022;2023-09-07T04:05:51;96839.31;;;32.21;32.63
74334;BME280;62753;40.394;-80.022;2023-09-07T04:08:16;96836.54;;;31.15;34.47
74334;BME280;62753;40.394;-80.022;2023-09-07T04:10:42;96833.09;;;31.98;33.05
74334;BME280;62753;40.394;-80.022;2023-09-07T04:13:07;96831.57;;;32.30;32.88
74334;BME280;62753;40.394;-80.022;2023-09-07T04:15:33;96828.76;;;32.20;32.65
74334;BME280;62753;40.394;-80.022;2023-09-07T04:17:58;96827.97;;;31.01;34.45
74334;BME280;62753;40.394;-80.022;2023-09-07T04:20:23;96823.28;;;30.73;34.07
74334;BME280;62753;40.394;-80.022;2023-09-07T04:22:48;96828.57;;;31.25;34.31
74334;BME280;62753;40.394;-80.022;2023-09-07T04:25:14;96822.99;;;32.21;32.42
74334;BME280;62753;40.394;-80.022;2023-09-07T04:27:39;96820.14;;;31.62;33.07
74334;BME280;62753;40.394;-80.022;2023-09-07T04:30:07;96821.16;;;31.55;33.57
74334;BME280;62753;40.394;-80.022;2023-09-07T04:32:31;96825.30;;;30.83;34.42
74334;BME280;62753;40.394;-80.022;2023-09-07T04:34:57;96828.54;;;30.91;34.41
74334;BME280;62753;40.394;-80.022;2023-09-07T04:37:22;96816.73;;;30.93;34.10
74334;BME280;62753;40.394;-80.022;2023-09-07T04:39:50;96816.11;;;31.04;34.25
74334;BME280;62753;40.394;-80.022;2023-09-07T04:42:12;96818.27;;;30.74;34.82
74334;BME280;62753;40.394;-80.022;2023-09-07T04:44:38;96817.07;;;29.74;36.94
74334;BME280;62753;40.394;-80.022;2023-09-07T04:47:03;96815.39;;;29.94;36.09
74334;BME280;62753;40.394;-80.022;2023-09-07T04:49:28;96809.34;;;29.19;37.85
74334;BME280;62753;40.394;-80.022;2023-09-07T04:51:54;96804.02;;;30.21;35.55
74334;BME280;62753;40.394;-80.022;2023-09-07T04:54:19;96802.12;;;30.82;35.35
74334;BME280;62753;40.394;-80.022;2023-09-07T04:56:44;96804.97;;;30.88;34.65
74334;BME280;62753;40.394;-80.022;2023-09-07T04:59:09;96801.85;;;29.47;36.58
74334;BME280;62753;40.394;-80.022;2023-09-07T05:01:34;96801.30;;;30.53;35.62
74334;BME280;62753;40.394;-80.022;2023-09-07T05:03:59;96798.23;;;29.97;36.33
74334;BME280;62753;40.394;-80.022;2023-09-07T05:06:24;96797.33;;;30.77;35.17
74334;BME280;62753;40.394;-80.022;2023-09-07T05:08:50;96795.24;;;30.61;35.61
74334;BME280;62753;40.394;-80.022;2023-09-07T05:11:15;96789.84;;;30.16;35.80
74334;BME280;62753;40.394;-80.022;2023-09-07T05:13:40;96792.10;;;30.16;36.32
74334;BME280;62753;40.394;-80.022;2023-09-07T05:16:05;96785.47;;;30.36;35.75
74334;BME280;62753;40.394;-80.022;2023-09-07T05:18:31;96785.72;;;29.95;36.34
74334;BME280;62753;40.394;-80.022;2023-09-07T05:20:56;96787.22;;;29.50;36.78
74334;BME280;62753;40.394;-80.022;2023-09-07T05:23:22;96782.75;;;29.99;36.23
74334;BME280;62753;40.394;-80.022;2023-09-07T05:25:49;96777.91;;;30.71;34.69
74334;BME280;62753;40.394;-80.022;2023-09-07T05:28:13;96779.08;;;30.94;34.91
74334;BME280;62753;40.394;-80.022;2023-09-07T05:30:37;96775.17;;;31.65;33.86
74334;BME280;62753;40.394;-80.022;2023-09-07T05:33:03;96773.64;;;30.88;34.40
74334;BME280;62753;40.394;-80.022;2023-09-07T05:35:27;96772.31;;;30.52;34.63
74334;BME280;62753;40.394;-80.022;2023-09-07T05:37:53;96767.55;;;30.89;34.25
74334;BME280;62753;40.394;-80.022;2023-09-07T05:40:18;96764.20;;;31.04;34.51
74334;BME280;62753;40.394;-80.022;2023-09-07T05:42:43;96763.69;;;31.71;33.72
74334;BME280;62753;40.394;-80.022;2023-09-07T05:45:09;96757.88;;;30.80;34.44
74334;BME280;62753;40.394;-80.022;2023-09-07T05:47:34;96746.14;;;30.49;34.79
74334;BME280;62753;40.394;-80.022;2023-09-07T05:49:59;96735.33;;;31.00;34.28
74334;BME280;62753;40.394;-80.022;2023-09-07T05:52:25;96732.03;;;29.83;36.07
74334;BME280;62753;40.394;-80.022;2023-09-07T05:54:50;96727.58;;;31.08;33.86
74334;BME280;62753;40.394;-80.022;2023-09-07T05:57:15;96729.14;;;31.31;33.81
74334;BME280;62753;40.394;-80.022;2023-09-07T05:59:41;96728.47;;;30.81;34.19
74334;BME280;62753;40.394;-80.022;2023-09-07T06:02:06;96728.64;;;31.37;33.88
74334;BME280;62753;40.394;-80.022;2023-09-07T06:04:31;96730.57;;;31.34;34.41
74334;BME280;62753;40.394;-80.022;2023-09-07T06:06:56;96726.62;;;31.16;34.16
74334;BME280;62753;40.394;-80.022;2023-09-07T06:09:21;96726.82;;;32.30;33.04
74334;BME280;62753;40.394;-80.022;2023-09-07T06:11:46;96728.65;;;31.87;33.37
74334;BME280;62753;40.394;-80.022;2023-09-07T06:14:12;96727.73;;;31.18;34.11
74334;BME280;62753;40.394;-80.022;2023-09-07T06:16:36;96726.44;;;31.98;33.58
74334;BME280;62753;40.394;-80.022;2023-09-07T06:19:02;96725.72;;;31.75;34.00
74334;BME280;62753;40.394;-80.022;2023-09-07T06:21:27;96724.92;;;31.63;33.69
74334;BME280;62753;40.394;-80.022;2023-09-07T06:23:53;96724.84;;;31.49;33.59
74334;BME280;62753;40.394;-80.022;2023-09-07T06:26:17;96724.57;;;31.24;33.67
74334;BME280;62753;40.394;-80.022;2023-09-07T06:28:42;96721.70;;;31.20;33.76
74334;BME280;62753;40.394;-80.022;2023-09-07T06:31:08;96721.19;;;30.72;34.69
74334;BME280;62753;40.394;-80.022;2023-09-07T06:33:33;96720.79;;;31.34;33.72
74334;BME280;62753;40.394;-80.022;2023-09-07T06:35:59;96719.44;;;31.65;33.53
74334;BME280;62753;40.394;-80.022;2023-09-07T06:38:24;96721.28;;;31.87;33.40
74334;BME280;62753;40.394;-80.022;2023-09-07T06:40:49;96721.45;;;31.68;33.29
74334;BME280;62753;40.394;-80.022;2023-09-07T06:43:14;96720.97;;;31.58;33.81
74334;BME280;62753;40.394;-80.022;2023-09-07T06:45:39;96721.44;;;31.46;33.66
74334;BME280;62753;40.394;-80.022;2023-09-07T06:48:05;96719.59;;;31.67;33.67
74334;BME280;62753;40.394;-80.022;2023-09-07T06:50:30;96722.07;;;31.32;34.09
74334;BME280;62753;40.394;-80.022;2023-09-07T06:52:56;96724.79;;;31.74;34.26
74334;BME280;62753;40.394;-80.022;2023-09-07T06:55:20;96724.42;;;32.17;33.61
74334;BME280;62753;40.394;-80.022;2023-09-07T06:57:45;96726.20;;;31.53;33.60
74334;BME280;62753;40.394;-80.022;2023-09-07T07:00:11;96728.20;;;31.29;34.40
74334;BME280;62753;40.394;-80.022;2023-09-07T07:02:36;96729.03;;;30.52;35.59
74334;BME280;62753;40.394;-80.022;2023-09-07T07:05:07;96728.68;;;31.94;33.88
74334;BME280;62753;40.394;-80.022;2023-09-07T07:07:26;96732.77;;;31.43;34.57
74334;BME280;62753;40.394;-80.022;2023-09-07T07:09:51;96737.17;;;30.21;36.56
74334;BME280;62753;40.394;-80.022;2023-09-07T07:12:17;96735.20;;;31.41;34.96
74334;BME280;62753;40.394;-80.022;2023-09-07T07:14:42;96736.56;;;30.72;35.83
74334;BME280;62753;40.394;-80.022;2023-09-07T07:17:07;96739.24;;;30.96;35.19
74334;BME280;62753;40.394;-80.022;2023-09-07T07:19:32;96738.30;;;31.20;34.95
74334;BME280;62753;40.394;-80.022;2023-09-07T07:21:58;96736.19;;;31.33;34.87
74334;BME280;62753;40.394;-80.022;2023-09-07T07:24:24;96732.67;;;31.34;34.68
74334;BME280;62753;40.394;-80.022;2023-09-07T07:26:48;96733.39;;;31.22;34.82
74334;BME280;62753;40.394;-80.022;2023-09-07T07:29:13;96733.01;;;30.66;35.50
74334;BME280;62753;40.394;-80.022;2023-09-07T07:31:39;96737.32;;;31.75;34.18
74334;BME280;62753;40.394;-80.022;2023-09-07T07:34:04;96735.45;;;31.63;34.03
74334;BME280;62753;40.394;-80.022;2023-09-07T07:36:30;96741.07;;;31.12;35.26
74334;BME280;62753;40.394;-80.022;2023-09-07T07:38:55;96743.68;;;29.91;36.03
74334;BME280;62753;40.394;-80.022;2023-09-07T07:41:21;96742.15;;;31.23;34.67
74334;BME280;62753;40.394;-80.022;2023-09-07T07:43:46;96741.19;;;32.29;33.66
74334;BME280;62753;40.394;-80.022;2023-09-07T07:46:11;96742.40;;;31.70;33.65
74334;BME280;62753;40.394;-80.022;2023-09-07T07:48:37;96746.24;;;31.63;33.60
74334;BME280;62753;40.394;-80.022;2023-09-07T07:51:04;96745.78;;;31.69;33.74
74334;BME280;62753;40.394;-80.022;2023-09-07T07:53:28;96747.59;;;31.48;34.18
74334;BME280;62753;40.394;-80.022;2023-09-07T07:55:54;96748.33;;;31.13;34.49
74334;BME280;62753;40.394;-80.022;2023-09-07T07:58:19;96746.96;;;31.52;35.15
74334;BME280;62753;40.394;-80.022;2023-09-07T08:00:44;96752.15;;;29.62;37.75
74334;BME280;62753;40.394;-80.022;2023-09-07T08:03:10;96743.40;;;30.40;36.06
74334;BME280;62753;40.394;-80.022;2023-09-07T08:05:35;96747.00;;;30.86;36.05
74334;BME280;62753;40.394;-80.022;2023-09-07T08:08:00;96747.29;;;31.47;35.20
74334;BME280;62753;40.394;-80.022;2023-09-07T08:10:25;96748.54;;;30.25;36.80
74334;BME280;62753;40.394;-80.022;2023-09-07T08:12:54;96747.74;;;30.72;36.27
74334;BME280;62753;40.394;-80.022;2023-09-07T08:15:15;96744.22;;;30.78;35.54
74334;BME280;62753;40.394;-80.022;2023-09-07T08:17:40;96746.35;;;30.92;35.45
74334;BME280;62753;40.394;-80.022;2023-09-07T08:20:06;96742.26;;;31.56;34.82
74334;BME280;62753;40.394;-80.022;2023-09-07T08:22:31;96745.38;;;31.74;34.47
74334;BME280;62753;40.394;-80.022;2023-09-07T08:24:56;96744.98;;;31.73;34.88
74334;BME280;62753;40.394;-80.022;2023-09-07T08:27:22;96745.53;;;31.18;35.39
74334;BME280;62753;40.394;-80.022;2023-09-07T08:29:47;96746.62;;;31.59;35.10
74334;BME280;62753;40.394;-80.022;2023-09-07T08:32:12;96749.26;;;31.21;35.27
74334;BME280;62753;40.394;-80.022;2023-09-07T08:34:38;96750.57;;;31.26;35.42
74334;BME280;62753;40.394;-80.022;2023-09-07T08:37:03;96752.97;;;30.99;36.00
74334;BME280;62753;40.394;-80.022;2023-09-07T08:39:29;96758.58;;;30.58;36.06
74334;BME280;62753;40.394;-80.022;2023-09-07T08:41:57;96754.57;;;30.78;35.70
74334;BME280;62753;40.394;-80.022;2023-09-07T08:44:20;96755.64;;;31.22;35.21
74334;BME280;62753;40.394;-80.022;2023-09-07T08:46:45;96752.59;;;31.29;35.40
74334;BME280;62753;40.394;-80.022;2023-09-07T08:49:10;96748.32;;;30.88;35.87
74334;BME280;62753;40.394;-80.022;2023-09-07T08:51:35;96747.46;;;30.97;35.66
74334;BME280;62753;40.394;-80.022;2023-09-07T08:54:01;96750.79;;;30.93;36.13
74334;BME280;62753;40.394;-80.022;2023-09-07T08:56:25;96753.36;;;30.91;35.68
74334;BME280;62753;40.394;-80.022;2023-09-07T08:58:51;96759.73;;;30.74;36.65
74334;BME280;62753;40.394;-80.022;2023-09-07T09:01:16;96760.21;;;30.87;35.91
74334;BME280;62753;40.394;-80.022;2023-09-07T09:03:42;96764.69;;;31.06;35.52
74334;BME280;62753;40.394;-80.022;2023-09-07T09:06:07;96775.44;;;29.94;38.09
74334;BME280;62753;40.394;-80.022;2023-09-07T09:08:42;96782.65;;;29.44;38.84
74334;BME280;62753;40.394;-80.022;2023-09-07T09:11:01;96783.55;;;28.84;41.53
74334;BME280;62753;40.394;-80.022;2023-09-07T09:13:27;96782.30;;;28.00;44.80
74334;BME280;62753;40.394;-80.022;2023-09-07T09:15:48;96785.35;;;27.41;44.88
74334;BME280;62753;40.394;-80.022;2023-09-07T09:18:14;96777.82;;;26.16;49.53
74334;BME280;62753;40.394;-80.022;2023-09-07T09:20:39;96775.90;;;25.66;51.25
74334;BME280;62753;40.394;-80.022;2023-09-07T09:23:05;96773.93;;;25.38;51.85
74334;BME280;62753;40.394;-80.022;2023-09-07T09:25:30;96779.23;;;25.76;50.91
74334;BME280;62753;40.394;-80.022;2023-09-07T09:27:54;96780.59;;;26.07;50.31
74334;BME280;62753;40.394;-80.022;2023-09-07T09:30:20;96787.76;;;26.54;49.17
74334;BME280;62753;40.394;-80.022;2023-09-07T09:32:46;96791.21;;;26.12;49.62
74334;BME280;62753;40.394;-80.022;2023-09-07T09:35:10;96791.30;;;25.87;50.46
74334;BME280;62753;40.394;-80.022;2023-09-07T09:37:44;96789.07;;;27.02;48.63
74334;BME280;62753;40.394;-80.022;2023-09-07T09:40:02;96792.95;;;26.48;49.47
74334;BME280;62753;40.394;-80.022;2023-09-07T09:42:25;96786.94;;;26.87;48.19
74334;BME280;62753;40.394;-80.022;2023-09-07T09:44:53;96782.63;;;27.13;47.75
74334;BME280;62753;40.394;-80.022;2023-09-07T09:47:18;96782.95;;;26.34;48.55
74334;BME280;62753;40.394;-80.022;2023-09-07T09:49:42;96775.45;;;26.71;49.38
74334;BME280;62753;40.394;-80.022;2023-09-07T09:52:08;96768.49;;;26.73;48.91
74334;BME280;62753;40.394;-80.022;2023-09-07T09:54:34;96776.25;;;27.36;46.42
74334;BME280;62753;40.394;-80.022;2023-09-07T09:56:58;96770.91;;;26.91;47.69
74334;BME280;62753;40.394;-80.022;2023-09-07T09:59:23;96770.73;;;27.84;45.82
74334;BME280;62753;40.394;-80.022;2023-09-07T10:01:48;96776.59;;;27.46;45.92
74334;BME280;62753;40.394;-80.022;2023-09-07T10:04:17;96776.55;;;28.84;43.15
74334;BME280;62753;40.394;-80.022;2023-09-07T10:06:49;96779.13;;;27.94;44.74
74334;BME280;62753;40.394;-80.022;2023-09-07T10:09:06;96773.69;;;28.06;44.21
74334;BME280;62753;40.394;-80.022;2023-09-07T10:11:31;96771.38;;;28.61;43.35
74334;BME280;62753;40.394;-80.022;2023-09-07T10:13:57;96771.48;;;28.03;44.35
74334;BME280;62753;40.394;-80.022;2023-09-07T10:16:20;96769.90;;;28.39;44.33
74334;BME280;62753;40.394;-80.022;2023-09-07T10:18:45;96769.64;;;27.95;44.84
74334;BME280;62753;40.394;-80.022;2023-09-07T10:21:11;96773.24;;;28.50;44.38
74334;BME280;62753;40.394;-80.022;2023-09-07T10:23:37;96771.96;;;27.26;46.33
74334;BME280;62753;40.394;-80.022;2023-09-07T10:26:03;96770.57;;;27.22;46.19
74334;BME280;62753;40.394;-80.022;2023-09-07T10:28:27;96778.63;;;27.71;45.29
74334;BME280;62753;40.394;-80.022;2023-09-07T10:30:59;96784.23;;;28.11;44.97
74334;BME280;62753;40.394;-80.022;2023-09-07T10:33:20;96784.33;;;27.07;46.57
74334;BME280;62753;40.394;-80.022;2023-09-07T10:35:44;96784.45;;;28.22;45.50
74334;BME280;62753;40.394;-80.022;2023-09-07T10:38:13;96789.90;;;28.78;44.57
74334;BME280;62753;40.394;-80.022;2023-09-07T10:40:35;96792.22;;;28.78;43.61
74334;BME280;62753;40.394;-80.022;2023-09-07T10:43:01;96793.95;;;28.41;44.62
74334;BME280;62753;40.394;-80.022;2023-09-07T10:45:26;96795.57;;;28.24;44.76
74334;BME280;62753;40.394;-80.022;2023-09-07T10:47:52;96794.18;;;28.30;45.82
74334;BME280;62753;40.394;-80.022;2023-09-07T10:50:17;96792.88;;;27.91;46.06
74334;BME280;62753;40.394;-80.022;2023-09-07T10:52:43;96788.11;;;27.22;46.69
74334;BME280;62753;40.394;-80.022;2023-09-07T10:55:11;96787.24;;;27.82;45.96
74334;BME280;62753;40.394;-80.022;2023-09-07T10:57:43;96788.09;;;28.10;44.33
74334;BME280;62753;40.394;-80.022;2023-09-07T11:00:01;96792.88;;;28.67;44.17
74334;BME280;62753;40.394;-80.022;2023-09-07T11:02:26;96794.81;;;27.82;45.64
74334;BME280;62753;40.394;-80.022;2023-09-07T11:04:51;96791.37;;;27.49;46.68
74334;BME280;62753;40.394;-80.022;2023-09-07T11:07:17;96790.72;;;27.02;47.45
74334;BME280;62753;40.394;-80.022;2023-09-07T11:09:42;96794.74;;;27.46;47.29
74334;BME280;62753;40.394;-80.022;2023-09-07T11:12:08;96797.95;;;27.79;47.11
74334;BME280;62753;40.394;-80.022;2023-09-07T11:14:33;96802.80;;;27.87;46.13
74334;BME280;62753;40.394;-80.022;2023-09-07T11:16:58;96805.98;;;27.57;46.67
74334;BME280;62753;40.394;-80.022;2023-09-07T11:19:23;96809.09;;;27.55;47.18
74334;BME280;62753;40.394;-80.022;2023-09-07T11:21:48;96815.51;;;28.37;45.57
74334;BME280;62753;40.394;-80.022;2023-09-07T11:24:15;96817.03;;;28.68;44.59
74334;BME280;62753;40.394;-80.022;2023-09-07T11:26:42;96824.39;;;27.77;46.56
74334;BME280;62753;40.394;-80.022;2023-09-07T11:29:05;96827.45;;;27.91;45.81
74334;BME280;62753;40.394;-80.022;2023-09-07T11:31:29;96826.90;;;27.84;46.44
74334;BME280;62753;40.394;-80.022;2023-09-07T11:33:56;96830.34;;;28.29;45.56
74334;BME280;62753;40.394;-80.022;2023-09-07T11:36:20;96829.42;;;28.10;46.60
74334;BME280;62753;40.394;-80.022;2023-09-07T11:38:46;96829.25;;;28.80;44.97
74334;BME280;62753;40.394;-80.022;2023-09-07T11:41:12;96831.75;;;29.01;44.42
74334;BME280;62753;40.394;-80.022;2023-09-07T11:43:37;96832.59;;;27.80;46.91
74334;BME280;62753;40.394;-80.022;2023-09-07T11:46:03;96833.88;;;28.69;45.36
74334;BME280;62753;40.394;-80.022;2023-09-07T11:48:28;96827.69;;;27.78;46.82
74334;BME280;62753;40.394;-80.022;2023-09-07T11:50:53;96828.40;;;28.05;46.17
74334;BME280;62753;40.394;-80.022;2023-09-07T11:53:19;96830.68;;;28.44;45.32
74334;BME280;62753;40.394;-80.022;2023-09-07T11:55:44;96826.94;;;27.79;46.70
74334;BME280;62753;40.394;-80.022;2023-09-07T11:58:09;96826.68;;;28.11;47.36
74334;BME280;62753;40.394;-80.022;2023-09-07T12:00:34;96830.89;;;26.70;49.06
74334;BME280;62753;40.394;-80.022;2023-09-07T12:03:00;96829.67;;;26.87;48.65
74334;BME280;62753;40.394;-80.022;2023-09-07T12:05:25;96835.13;;;27.58;48.57
74334;BME280;62753;40.394;-80.022;2023-09-07T12:07:51;96839.77;;;27.39;48.75
74334;BME280;62753;40.394;-80.022;2023-09-07T12:10:16;96843.19;;;27.73;47.86
74334;BME280;62753;40.394;-80.022;2023-09-07T12:12:42;96844.26;;;28.29;46.12
74334;BME280;62753;40.394;-80.022;2023-09-07T12:15:08;96839.64;;;28.70;44.64
74334;BME280;62753;40.394;-80.022;2023-09-07T12:17:33;96836.71;;;28.23;44.99
74334;BME280;62753;40.394;-80.022;2023-09-07T12:19:58;96834.99;;;28.19;45.52
74334;BME280;62753;40.394;-80.022;2023-09-07T12:22:24;96836.90;;;27.80;45.74
74334;BME280;62753;40.394;-80.022;2023-09-07T12:24:50;96832.52;;;27.85;44.89
74334;BME280;62753;40.394;-80.022;2023-09-07T12:27:15;96832.64;;;29.01;44.38
74334;BME280;62753;40.394;-80.022;2023-09-07T12:29:41;96829.27;;;28.57;44.37